sensor_id;sensor_type;location;lat;lon;timestamp;temperature;humidity
7378;DHT22;3730;50.856;12.776;2023-12-14T00:00:18;7.40;1.00
7378;DHT22;3730;50.856;12.776;2023-12-14T00:02:44;7.60;1.00
7378;DHT22;3730;50.856;12.776;2023-12-14T00:05:10;7.40;1.00
7378;DHT22;3730;50.856;12.776;2023-12-14T00:07:36;7.80;1.00
7378;DHT22;3730;50.856;12.776;2023-12-14T00:10:01;7.60;1.00
7378;DHT22;3730;50.856;12.776;2023-12-14T00:17:20;7.60;1.00
7378;DHT22;3730;50.856;12.776;2023-12-14T00:19:46;7.70;62.20
7378;DHT22;3730;50.856;12.776;2023-12-14T00:22:11;7.80;99.90
7378;DHT22;3730;50.856;12.776;2023-12-14T00:24:37;7.80;99.90
7378;DHT22;3730;50.856;12.776;2023-12-14T00:27:02;7.60;99.90
7378;DHT22;3730;50.856;12.776;2023-12-14T00:29:28;7.40;99.90
7378;DHT22;3730;50.856;12.776;2023-12-14T00:31:54;7.80;99.90
7378;DHT22;3730;50.856;12.776;2023-12-14T00:34:19;7.50;99.90
7378;DHT22;3730;50.856;12.776;2023-12-14T00:36:45;7.80;99.90
7378;DHT22;3730;50.856;12.776;2023-12-14T00:39:10;7.90;99.90
7378;DHT22;3730;50.856;12.776;2023-12-14T00:41:36;7.70;99.90
7378;DHT22;3730;50.856;12.776;2023-12-14T00:44:02;8.00;99.90
7378;DHT22;3730;50.856;12.776;2023-12-14T00:46:27;8.00;99.90
7378;DHT22;3730;50.856;12.776;2023-12-14T00:48:53;7.80;99.90
7378;DHT22;3730;50.856;12.776;2023-12-14T00:51:18;7.70;99.90
7378;DHT22;3730;50.856;12.776;2023-12-14T00:53:44;7.90;99.90
7378;DHT22;3730;50.856;12.776;2023-12-14T00:58:36;8.40;99.90
7378;DHT22;3730;50.856;12.776;2023-12-14T01:01:01;7.90;99.90
7378;DHT22;3730;50.856;12.776;2023-12-14T01:03:27;7.90;99.90
7378;DHT22;3730;50.856;12.776;2023-12-14T01:05:52;7.70;99.90
7378;DHT22;3730;50.856;12.776;2023-12-14T01:08:18;7.80;99.90
7378;DHT22;3730;50.856;12.776;2023-12-14T01:15:36;7.70;99.90
7378;DHT22;3730;50.856;12.776;2023-12-14T01:18:01;7.90;1.00
7378;DHT22;3730;50.856;12.776;2023-12-14T01:20:27;7.80;1.00
7378;DHT22;3730;50.856;12.776;2023-12-14T01:22:53;7.70;1.00
7378;DHT22;3730;50.856;12.776;2023-12-14T01:25:18;7.80;1.00
7378;DHT22;3730;50.856;12.776;2023-12-14T01:30:10;7.70;90.50
7378;DHT22;3730;50.856;12.776;2023-12-14T01:32:36;8.20;99.90
7378;DHT22;3730;50.856;12.776;2023-12-14T01:35:02;7.80;99.90
7378;DHT22;3730;50.856;12.776;2023-12-14T01:39:54;7.90;1.00
7378;DHT22;3730;50.856;12.776;2023-12-14T01:44:45;7.80;99.90
7378;DHT22;3730;50.856;12.776;2023-12-14T01:47:11;7.70;99.90
7378;DHT22;3730;50.856;12.776;2023-12-14T01:49:36;7.80;99.90
7378;DHT22;3730;50.856;12.776;2023-12-14T01:52:02;7.60;1.00
7378;DHT22;3730;50.856;12.776;2023-12-14T01:54:27;7.80;1.00
7378;DHT22;3730;50.856;12.776;2023-12-14T01:56:53;7.80;17.10
7378;DHT22;3730;50.856;12.776;2023-12-14T01:59:19;7.80;99.90
7378;DHT22;3730;50.856;12.776;2023-12-14T02:01:46;7.50;99.90
7378;DHT22;3730;50.856;12.776;2023-12-14T02:04:13;7.50;1.00
7378;DHT22;3730;50.856;12.776;2023-12-14T02:09:06;7.70;1.00
7378;DHT22;3730;50.856;12.776;2023-12-14T02:11:31;7.70;99.90
7378;DHT22;3730;50.856;12.776;2023-12-14T02:13:57;7.70;1.00
7378;DHT22;3730;50.856;12.776;2023-12-14T02:16:22;7.70;1.00
7378;DHT22;3730;50.856;12.776;2023-12-14T02:18:49;7.40;99.90
7378;DHT22;3730;50.856;12.776;2023-12-14T02:21:14;7.50;1.00
7378;DHT22;3730;50.856;12.776;2023-12-14T02:23:46;7.60;86.90
7378;DHT22;3730;50.856;12.776;2023-12-14T02:26:12;7.40;99.90
7378;DHT22;3730;50.856;12.776;2023-12-14T02:28:38;7.50;99.90
7378;DHT22;3730;50.856;12.776;2023-12-14T02:31:04;7.80;1.00
7378;DHT22;3730;50.856;12.776;2023-12-14T02:33:29;7.60;1.00
7378;DHT22;3730;50.856;12.776;2023-12-14T02:35:55;7.60;1.00
7378;DHT22;3730;50.856;12.776;2023-12-14T02:38:20;7.50;1.00
7378;DHT22;3730;50.856;12.776;2023-12-14T02:40:46;7.70;1.00
7378;DHT22;3730;50.856;12.776;2023-12-14T02:43:12;7.70;1.00
7378;DHT22;3730;50.856;12.776;2023-12-14T02:45:38;7.40;24.90
7378;DHT22;3730;50.856;12.776;2023-12-14T02:48:04;7.60;99.90
7378;DHT22;3730;50.856;12.776;2023-12-14T02:52:55;7.50;99.90
7378;DHT22;3730;50.856;12.776;2023-12-14T02:55:21;7.30;1.00
7378;DHT22;3730;50.856;12.776;2023-12-14T02:57:47;7.40;1.00
7378;DHT22;3730;50.856;12.776;2023-12-14T03:00:13;7.30;1.00
7378;DHT22;3730;50.856;12.776;2023-12-14T03:02:38;7.60;1.00
7378;DHT22;3730;50.856;12.776;2023-12-14T03:05:04;7.40;1.00
7378;DHT22;3730;50.856;12.776;2023-12-14T03:07:30;7.30;1.00
7378;DHT22;3730;50.856;12.776;2023-12-14T03:09:55;7.50;1.00
7378;DHT22;3730;50.856;12.776;2023-12-14T03:12:21;7.30;1.00
7378;DHT22;3730;50.856;12.776;2023-12-14T03:17:13;7.20;1.00
7378;DHT22;3730;50.856;12.776;2023-12-14T03:19:42;7.50;1.00
7378;DHT22;3730;50.856;12.776;2023-12-14T03:22:08;7.50;10.50
7378;DHT22;3730;50.856;12.776;2023-12-14T03:24:35;7.40;68.80
7378;DHT22;3730;50.856;12.776;2023-12-14T03:27:01;7.30;99.90
7378;DHT22;3730;50.856;12.776;2023-12-14T05:33:39;6.70;99.90
7378;DHT22;3730;50.856;12.776;2023-12-14T05:36:05;6.60;1.00
7378;DHT22;3730;50.856;12.776;2023-12-14T05:38:34;6.60;1.00
7378;DHT22;3730;50.856;12.776;2023-12-14T05:41:00;6.60;1.00
7378;DHT22;3730;50.856;12.776;2023-12-14T05:43:26;6.60;1.00
7378;DHT22;3730;50.856;12.776;2023-12-14T05:45:51;6.60;1.00
7378;DHT22;3730;50.856;12.776;2023-12-14T05:48:17;6.60;1.00
7378;DHT22;3730;50.856;12.776;2023-12-14T05:53:08;6.80;1.00
7378;DHT22;3730;50.856;12.776;2023-12-14T05:55:35;6.70;1.00
7378;DHT22;3730;50.856;12.776;2023-12-14T06:00:26;6.80;1.00
7378;DHT22;3730;50.856;12.776;2023-12-14T06:10:10;6.90;1.00
7378;DHT22;3730;50.856;12.776;2023-12-14T06:12:35;7.20;1.00
7378;DHT22;3730;50.856;12.776;2023-12-14T06:15:01;7.10;1.00
7378;DHT22;3730;50.856;12.776;2023-12-14T06:17:27;6.80;1.00
7378;DHT22;3730;50.856;12.776;2023-12-14T06:19:53;6.80;1.00
7378;DHT22;3730;50.856;12.776;2023-12-14T06:22:18;6.90;1.00
7378;DHT22;3730;50.856;12.776;2023-12-14T06:24:44;6.70;1.00
7378;DHT22;3730;50.856;12.776;2023-12-14T06:27:10;6.90;1.00
7378;DHT22;3730;50.856;12.776;2023-12-14T06:29:35;6.80;1.00
7378;DHT22;3730;50.856;12.776;2023-12-14T06:32:01;6.40;1.00
7378;DHT22;3730;50.856;12.776;2023-12-14T06:39:19;6.60;1.00
7378;DHT22;3730;50.856;12.776;2023-12-14T06:41:44;6.50;1.00
7378;DHT22;3730;50.856;12.776;2023-12-14T06:44:10;6.60;1.00
7378;DHT22;3730;50.856;12.776;2023-12-14T06:46:35;6.50;1.00
7378;DHT22;3730;50.856;12.776;2023-12-14T06:51:27;6.40;1.00
7378;DHT22;3730;50.856;12.776;2023-12-14T06:56:19;6.50;1.00
7378;DHT22;3730;50.856;12.776;2023-12-14T07:01:15;6.70;1.00
7378;DHT22;3730;50.856;12.776;2023-12-14T07:03:42;6.70;1.00
7378;DHT22;3730;50.856;12.776;2023-12-14T07:06:12;6.50;1.00
7378;DHT22;3730;50.856;12.776;2023-12-14T07:08:39;6.60;1.00
7378;DHT22;3730;50.856;12.776;2023-12-14T07:11:05;6.40;1.00
7378;DHT22;3730;50.856;12.776;2023-12-14T07:13:30;6.40;1.00
7378;DHT22;3730;50.856;12.776;2023-12-14T07:15:56;6.30;1.00
7378;DHT22;3730;50.856;12.776;2023-12-14T07:18:22;6.70;1.00
